sensor_id;sensor_type;location;lat;lon;timestamp;P1;durP1;ratioP1;P2;durP2;ratioP2
912;SDS011;443;51.448;7.028;2023-01-26T00:02:09;66.77;;;34.70;;
912;SDS011;443;51.448;7.028;2023-01-26T00:04:36;64.33;;;33.27;;
912;SDS011;443;51.448;7.028;2023-01-26T00:07:02;56.90;;;31.27;;
912;SDS011;443;51.448;7.028;2023-01-26T00:09:29;65.23;;;33.30;;
912;SDS011;443;51.448;7.028;2023-01-26T00:11:56;71.57;;;35.30;;
912;SDS011;443;51.448;7.028;2023-01-26T00:14:23;70.10;;;32.97;;
912;SDS011;443;51.448;7.028;2023-01-26T00:16:49;60.60;;;32.03;;
912;SDS011;443;51.448;7.028;2023-01-26T00:19:19;65.83;;;31.10;;
912;SDS011;443;51.448;7.028;2023-01-26T00:21:45;68.47;;;31.97;;
912;SDS011;443;51.448;7.028;2023-01-26T00:24:12;69.63;;;33.03;;
912;SDS011;443;51.448;7.028;2023-01-26T00:26:39;61.80;;;33.73;;
912;SDS011;443;51.448;7.028;2023-01-26T00:29:05;71.47;;;33.17;;
912;SDS011;443;51.448;7.028;2023-01-26T00:31:32;63.03;;;33.93;;
912;SDS011;443;51.448;7.028;2023-01-26T00:33:59;63.97;;;32.73;;
912;SDS011;443;51.448;7.028;2023-01-26T00:36:27;72.23;;;36.07;;
912;SDS011;443;51.448;7.028;2023-01-26T00:38:55;59.90;;;32.23;;
912;SDS011;443;51.448;7.028;2023-01-26T00:41:21;54.70;;;30.53;;
912;SDS011;443;51.448;7.028;2023-01-26T00:44:06;63.77;;;31.17;;
912;SDS011;443;51.448;7.028;2023-01-26T00:46:33;69.67;;;31.60;;
912;SDS011;443;51.448;7.028;2023-01-26T00:49:00;66.60;;;33.83;;
912;SDS011;443;51.448;7.028;2023-01-26T00:51:28;68.47;;;33.57;;
912;SDS011;443;51.448;7.028;2023-01-26T00:53:54;73.17;;;33.77;;
912;SDS011;443;51.448;7.028;2023-01-26T00:56:21;65.97;;;32.40;;
912;SDS011;443;51.448;7.028;2023-01-26T00:58:51;56.70;;;30.63;;
912;SDS011;443;51.448;7.028;2023-01-26T01:01:18;54.53;;;29.73;;
912;SDS011;443;51.448;7.028;2023-01-26T01:03:45;70.03;;;31.90;;
912;SDS011;443;51.448;7.028;2023-01-26T01:06:12;62.23;;;31.17;;
912;SDS011;443;51.448;7.028;2023-01-26T01:08:40;58.97;;;31.07;;
912;SDS011;443;51.448;7.028;2023-01-26T01:11:08;46.20;;;27.10;;
912;SDS011;443;51.448;7.028;2023-01-26T01:13:37;59.43;;;31.20;;
912;SDS011;443;51.448;7.028;2023-01-26T01:16:04;61.33;;;31.10;;
912;SDS011;443;51.448;7.028;2023-01-26T01:18:31;58.73;;;30.93;;
912;SDS011;443;51.448;7.028;2023-01-26T01:20:58;60.80;;;30.87;;
912;SDS011;443;51.448;7.028;2023-01-26T01:23:26;59.53;;;29.60;;
912;SDS011;443;51.448;7.028;2023-01-26T01:25:58;61.57;;;32.03;;
912;SDS011;443;51.448;7.028;2023-01-26T01:28:25;63.20;;;29.77;;
912;SDS011;443;51.448;7.028;2023-01-26T01:30:53;52.10;;;25.67;;
912;SDS011;443;51.448;7.028;2023-01-26T01:33:20;63.47;;;28.93;;
912;SDS011;443;51.448;7.028;2023-01-26T01:35:54;57.83;;;28.27;;
912;SDS011;443;51.448;7.028;2023-01-26T01:38:22;64.30;;;31.73;;
912;SDS011;443;51.448;7.028;2023-01-26T01:40:49;60.80;;;27.93;;
912;SDS011;443;51.448;7.028;2023-01-26T01:43:17;48.77;;;28.23;;
912;SDS011;443;51.448;7.028;2023-01-26T01:45:44;47.90;;;26.20;;
912;SDS011;443;51.448;7.028;2023-01-26T01:48:17;56.13;;;29.13;;
912;SDS011;443;51.448;7.028;2023-01-26T01:50:48;63.63;;;29.43;;
912;SDS011;443;51.448;7.028;2023-01-26T01:53:19;54.27;;;28.33;;
912;SDS011;443;51.448;7.028;2023-01-26T01:55:49;53.93;;;25.67;;
912;SDS011;443;51.448;7.028;2023-01-26T01:58:21;55.43;;;29.37;;
912;SDS011;443;51.448;7.028;2023-01-26T02:00:48;44.53;;;25.23;;
912;SDS011;443;51.448;7.028;2023-01-26T02:03:15;50.67;;;25.83;;
912;SDS011;443;51.448;7.028;2023-01-26T02:05:47;52.47;;;25.57;;
912;SDS011;443;51.448;7.028;2023-01-26T02:08:18;58.20;;;30.13;;
912;SDS011;443;51.448;7.028;2023-01-26T02:10:47;50.67;;;27.00;;
912;SDS011;443;51.448;7.028;2023-01-26T02:13:17;45.53;;;24.27;;
912;SDS011;443;51.448;7.028;2023-01-26T02:15:45;48.30;;;24.50;;
912;SDS011;443;51.448;7.028;2023-01-26T02:18:13;59.30;;;28.87;;
912;SDS011;443;51.448;7.028;2023-01-26T02:20:42;51.27;;;26.70;;
912;SDS011;443;51.448;7.028;2023-01-26T02:23:14;47.93;;;24.47;;
912;SDS011;443;51.448;7.028;2023-01-26T02:28:38;49.57;;;24.70;;
912;SDS011;443;51.448;7.028;2023-01-26T02:31:06;52.00;;;27.23;;
912;SDS011;443;51.448;7.028;2023-01-26T02:33:35;55.53;;;29.03;;
912;SDS011;443;51.448;7.028;2023-01-26T02:36:02;58.63;;;29.03;;
912;SDS011;443;51.448;7.028;2023-01-26T02:38:32;65.90;;;32.33;;
912;SDS011;443;51.448;7.028;2023-01-26T02:41:05;61.70;;;33.00;;
912;SDS011;443;51.448;7.028;2023-01-26T02:43:35;55.43;;;29.00;;
912;SDS011;443;51.448;7.028;2023-01-26T02:46:01;65.93;;;31.37;;
912;SDS011;443;51.448;7.028;2023-01-26T02:48:28;55.10;;;28.23;;
912;SDS011;443;51.448;7.028;2023-01-26T02:51:13;60.87;;;30.90;;
912;SDS011;443;51.448;7.028;2023-01-26T02:53:40;54.67;;;28.43;;
912;SDS011;443;51.448;7.028;2023-01-26T02:56:06;52.30;;;29.00;;
912;SDS011;443;51.448;7.028;2023-01-26T02:58:32;58.90;;;29.97;;
912;SDS011;443;51.448;7.028;2023-01-26T03:01:00;53.07;;;28.00;;
912;SDS011;443;51.448;7.028;2023-01-26T03:03:27;56.90;;;30.27;;
912;SDS011;443;51.448;7.028;2023-01-26T03:06:07;56.47;;;28.77;;
912;SDS011;443;51.448;7.028;2023-01-26T03:08:34;60.70;;;29.47;;
912;SDS011;443;51.448;7.028;2023-01-26T03:11:01;58.83;;;29.50;;
912;SDS011;443;51.448;7.028;2023-01-26T03:13:29;54.63;;;28.50;;
912;SDS011;443;51.448;7.028;2023-01-26T03:15:55;54.27;;;26.53;;
912;SDS011;443;51.448;7.028;2023-01-26T03:18:32;55.50;;;27.20;;
912;SDS011;443;51.448;7.028;2023-01-26T03:21:17;58.23;;;28.97;;
912;SDS011;443;51.448;7.028;2023-01-26T03:24:02;49.43;;;24.30;;
912;SDS011;443;51.448;7.028;2023-01-26T03:26:44;56.20;;;29.17;;
912;SDS011;443;51.448;7.028;2023-01-26T03:29:28;58.57;;;28.40;;
912;SDS011;443;51.448;7.028;2023-01-26T03:31:56;54.00;;;28.60;;
912;SDS011;443;51.448;7.028;2023-01-26T03:34:25;52.70;;;28.10;;
912;SDS011;443;51.448;7.028;2023-01-26T03:36:53;52.80;;;26.40;;
912;SDS011;443;51.448;7.028;2023-01-26T03:39:20;58.43;;;28.30;;
912;SDS011;443;51.448;7.028;2023-01-26T03:42:05;53.80;;;28.37;;
912;SDS011;443;51.448;7.028;2023-01-26T03:44:49;61.60;;;29.30;;
912;SDS011;443;51.448;7.028;2023-01-26T03:47:34;58.30;;;26.00;;
912;SDS011;443;51.448;7.028;2023-01-26T03:50:20;61.33;;;29.20;;
912;SDS011;443;51.448;7.028;2023-01-26T03:53:11;55.60;;;25.53;;
912;SDS011;443;51.448;7.028;2023-01-26T03:55:56;49.73;;;26.57;;
912;SDS011;443;51.448;7.028;2023-01-26T03:58:42;49.07;;;24.70;;
912;SDS011;443;51.448;7.028;2023-01-26T04:01:09;49.13;;;26.20;;
912;SDS011;443;51.448;7.028;2023-01-26T04:03:43;49.60;;;26.40;;
912;SDS011;443;51.448;7.028;2023-01-26T04:06:30;47.30;;;25.07;;
912;SDS011;443;51.448;7.028;2023-01-26T04:09:15;49.77;;;25.83;;
912;SDS011;443;51.448;7.028;2023-01-26T04:11:41;45.43;;;25.00;;
912;SDS011;443;51.448;7.028;2023-01-26T04:14:09;49.10;;;24.80;;
912;SDS011;443;51.448;7.028;2023-01-26T04:16:55;55.97;;;27.40;;
912;SDS011;443;51.448;7.028;2023-01-26T04:19:39;46.13;;;22.20;;
912;SDS011;443;51.448;7.028;2023-01-26T04:22:25;50.67;;;24.80;;
912;SDS011;443;51.448;7.028;2023-01-26T04:24:52;38.97;;;21.17;;
912;SDS011;443;51.448;7.028;2023-01-26T04:27:19;45.93;;;23.17;;
912;SDS011;443;51.448;7.028;2023-01-26T04:29:45;51.83;;;23.80;;
912;SDS011;443;51.448;7.028;2023-01-26T04:32:12;45.40;;;23.83;;
912;SDS011;443;51.448;7.028;2023-01-26T04:34:39;46.43;;;24.33;;
912;SDS011;443;51.448;7.028;2023-01-26T04:37:07;46.53;;;22.23;;
912;SDS011;443;51.448;7.028;2023-01-26T04:39:35;54.13;;;25.57;;
912;SDS011;443;51.448;7.028;2023-01-26T04:42:02;48.20;;;23.47;;
912;SDS011;443;51.448;7.028;2023-01-26T04:44:29;42.17;;;22.07;;
912;SDS011;443;51.448;7.028;2023-01-26T04:46:56;40.13;;;21.93;;
912;SDS011;443;51.448;7.028;2023-01-26T04:49:22;36.43;;;20.73;;
912;SDS011;443;51.448;7.028;2023-01-26T04:51:49;41.73;;;20.77;;
912;SDS011;443;51.448;7.028;2023-01-26T04:54:16;48.70;;;23.93;;
912;SDS011;443;51.448;7.028;2023-01-26T04:56:44;48.23;;;21.77;;
912;SDS011;443;51.448;7.028;2023-01-26T04:59:11;38.97;;;20.80;;
912;SDS011;443;51.448;7.028;2023-01-26T05:01:38;39.43;;;20.53;;
912;SDS011;443;51.448;7.028;2023-01-26T05:04:05;41.27;;;20.70;;
912;SDS011;443;51.448;7.028;2023-01-26T05:06:32;43.10;;;21.43;;
912;SDS011;443;51.448;7.028;2023-01-26T05:08:59;44.07;;;21.70;;
912;SDS011;443;51.448;7.028;2023-01-26T05:11:25;39.77;;;20.07;;
912;SDS011;443;51.448;7.028;2023-01-26T05:13:54;36.60;;;21.47;;
912;SDS011;443;51.448;7.028;2023-01-26T05:16:20;40.97;;;21.00;;
912;SDS011;443;51.448;7.028;2023-01-26T05:18:47;38.93;;;20.60;;
912;SDS011;443;51.448;7.028;2023-01-26T05:21:14;44.07;;;20.67;;
912;SDS011;443;51.448;7.028;2023-01-26T05:23:41;42.20;;;23.03;;
912;SDS011;443;51.448;7.028;2023-01-26T05:26:07;43.73;;;20.73;;
912;SDS011;443;51.448;7.028;2023-01-26T05:28:34;44.60;;;24.73;;
912;SDS011;443;51.448;7.028;2023-01-26T05:31:03;41.47;;;22.37;;
912;SDS011;443;51.448;7.028;2023-01-26T05:33:30;46.57;;;24.10;;
912;SDS011;443;51.448;7.028;2023-01-26T05:35:56;39.30;;;20.30;;
912;SDS011;443;51.448;7.028;2023-01-26T05:38:23;47.70;;;22.43;;
912;SDS011;443;51.448;7.028;2023-01-26T05:40:50;40.47;;;20.43;;
912;SDS011;443;51.448;7.028;2023-01-26T05:43:17;37.70;;;19.37;;
912;SDS011;443;51.448;7.028;2023-01-26T05:45:43;31.23;;;17.77;;
912;SDS011;443;51.448;7.028;2023-01-26T05:48:11;37.43;;;18.80;;
912;SDS011;443;51.448;7.028;2023-01-26T05:50:38;39.33;;;20.47;;
912;SDS011;443;51.448;7.028;2023-01-26T05:53:05;34.20;;;17.93;;
912;SDS011;443;51.448;7.028;2023-01-26T05:55:32;33.37;;;16.63;;
912;SDS011;443;51.448;7.028;2023-01-26T05:57:58;31.73;;;18.60;;
912;SDS011;443;51.448;7.028;2023-01-26T06:00:25;35.10;;;18.70;;
912;SDS011;443;51.448;7.028;2023-01-26T06:02:52;32.93;;;17.53;;
912;SDS011;443;51.448;7.028;2023-01-26T06:05:20;35.97;;;18.27;;
912;SDS011;443;51.448;7.028;2023-01-26T06:07:47;30.23;;;16.93;;
912;SDS011;443;51.448;7.028;2023-01-26T06:10:14;28.40;;;15.70;;
912;SDS011;443;51.448;7.028;2023-01-26T06:12:41;28.23;;;15.33;;
912;SDS011;443;51.448;7.028;2023-01-26T06:15:09;29.13;;;15.43;;
912;SDS011;443;51.448;7.028;2023-01-26T06:17:37;33.50;;;17.17;;
912;SDS011;443;51.448;7.028;2023-01-26T06:20:04;26.23;;;15.57;;
912;SDS011;443;51.448;7.028;2023-01-26T06:22:33;25.03;;;17.40;;
912;SDS011;443;51.448;7.028;2023-01-26T06:25:00;32.87;;;17.47;;
912;SDS011;443;51.448;7.028;2023-01-26T06:27:27;28.07;;;15.43;;
912;SDS011;443;51.448;7.028;2023-01-26T06:29:53;32.57;;;18.00;;
912;SDS011;443;51.448;7.028;2023-01-26T06:32:20;26.50;;;14.57;;
912;SDS011;443;51.448;7.028;2023-01-26T06:34:47;37.20;;;16.60;;
912;SDS011;443;51.448;7.028;2023-01-26T06:37:14;31.00;;;15.67;;
912;SDS011;443;51.448;7.028;2023-01-26T06:39:42;25.97;;;15.03;;
912;SDS011;443;51.448;7.028;2023-01-26T06:42:08;31.20;;;16.03;;
912;SDS011;443;51.448;7.028;2023-01-26T06:44:37;27.77;;;15.83;;
912;SDS011;443;51.448;7.028;2023-01-26T06:47:03;23.00;;;14.30;;
912;SDS011;443;51.448;7.028;2023-01-26T06:49:31;27.10;;;15.80;;
912;SDS011;443;51.448;7.028;2023-01-26T06:51:58;28.00;;;15.33;;
912;SDS011;443;51.448;7.028;2023-01-26T06:54:29;28.43;;;15.50;;
912;SDS011;443;51.448;7.028;2023-01-26T06:56:57;28.47;;;15.67;;
912;SDS011;443;51.448;7.028;2023-01-26T06:59:24;29.30;;;15.80;;
912;SDS011;443;51.448;7.028;2023-01-26T07:01:51;29.90;;;14.60;;
912;SDS011;443;51.448;7.028;2023-01-26T07:04:18;29.83;;;15.67;;
912;SDS011;443;51.448;7.028;2023-01-26T07:06:44;29.07;;;15.37;;
912;SDS011;443;51.448;7.028;2023-01-26T07:09:11;27.10;;;15.97;;
912;SDS011;443;51.448;7.028;2023-01-26T07:11:38;35.70;;;18.60;;
912;SDS011;443;51.448;7.028;2023-01-26T07:14:06;25.13;;;14.87;;
912;SDS011;443;51.448;7.028;2023-01-26T07:16:33;28.50;;;15.17;;
912;SDS011;443;51.448;7.028;2023-01-26T07:19:00;35.30;;;18.10;;
912;SDS011;443;51.448;7.028;2023-01-26T07:21:27;27.27;;;14.67;;
912;SDS011;443;51.448;7.028;2023-01-26T07:23:53;30.33;;;17.40;;
912;SDS011;443;51.448;7.028;2023-01-26T07:26:20;31.80;;;16.33;;
912;SDS011;443;51.448;7.028;2023-01-26T07:28:47;34.20;;;17.33;;
912;SDS011;443;51.448;7.028;2023-01-26T07:31:15;28.33;;;16.43;;
912;SDS011;443;51.448;7.028;2023-01-26T07:33:42;27.67;;;16.93;;
912;SDS011;443;51.448;7.028;2023-01-26T07:36:09;31.90;;;16.60;;
912;SDS011;443;51.448;7.028;2023-01-26T07:38:36;31.63;;;17.50;;
912;SDS011;443;51.448;7.028;2023-01-26T07:41:04;31.90;;;17.13;;
912;SDS011;443;51.448;7.028;2023-01-26T07:43:32;35.10;;;16.50;;
912;SDS011;443;51.448;7.028;2023-01-26T07:45:59;33.80;;;17.90;;
912;SDS011;443;51.448;7.028;2023-01-26T07:48:28;36.30;;;17.33;;
912;SDS011;443;51.448;7.028;2023-01-26T07:50:56;38.47;;;18.83;;
912;SDS011;443;51.448;7.028;2023-01-26T07:53:25;31.53;;;17.17;;
912;SDS011;443;51.448;7.028;2023-01-26T07:55:53;31.30;;;17.97;;
912;SDS011;443;51.448;7.028;2023-01-26T07:58:21;29.40;;;17.07;;
912;SDS011;443;51.448;7.028;2023-01-26T08:00:47;37.83;;;20.37;;
912;SDS011;443;51.448;7.028;2023-01-26T08:03:14;39.53;;;18.77;;
912;SDS011;443;51.448;7.028;2023-01-26T08:05:42;31.30;;;16.83;;
912;SDS011;443;51.448;7.028;2023-01-26T08:08:09;34.67;;;19.77;;
912;SDS011;443;51.448;7.028;2023-01-26T08:10:36;34.83;;;17.07;;
912;SDS011;443;51.448;7.028;2023-01-26T08:13:03;30.40;;;18.73;;
912;SDS011;443;51.448;7.028;2023-01-26T08:15:29;37.60;;;19.57;;
912;SDS011;443;51.448;7.028;2023-01-26T08:17:56;35.30;;;19.53;;
912;SDS011;443;51.448;7.028;2023-01-26T08:20:24;38.43;;;19.23;;
912;SDS011;443;51.448;7.028;2023-01-26T08:22:52;33.37;;;18.70;;
912;SDS011;443;51.448;7.028;2023-01-26T08:25:19;31.80;;;16.47;;
912;SDS011;443;51.448;7.028;2023-01-26T08:27:46;37.63;;;19.00;;
912;SDS011;443;51.448;7.028;2023-01-26T08:30:13;37.60;;;17.33;;
912;SDS011;443;51.448;7.028;2023-01-26T08:32:40;38.67;;;22.20;;
912;SDS011;443;51.448;7.028;2023-01-26T08:35:07;45.80;;;21.90;;
912;SDS011;443;51.448;7.028;2023-01-26T08:37:34;43.33;;;19.83;;
912;SDS011;443;51.448;7.028;2023-01-26T08:40:02;40.83;;;20.27;;
912;SDS011;443;51.448;7.028;2023-01-26T08:42:29;40.67;;;21.50;;
912;SDS011;443;51.448;7.028;2023-01-26T08:44:56;38.83;;;18.63;;
912;SDS011;443;51.448;7.028;2023-01-26T08:47:24;36.93;;;19.27;;
912;SDS011;443;51.448;7.028;2023-01-26T08:49:51;39.90;;;20.00;;
912;SDS011;443;51.448;7.028;2023-01-26T08:52:18;43.43;;;22.67;;
912;SDS011;443;51.448;7.028;2023-01-26T08:54:45;50.97;;;21.93;;
912;SDS011;443;51.448;7.028;2023-01-26T08:57:13;41.10;;;19.40;;
912;SDS011;443;51.448;7.028;2023-01-26T08:59:40;38.60;;;20.13;;
912;SDS011;443;51.448;7.028;2023-01-26T09:02:07;42.80;;;21.17;;
912;SDS011;443;51.448;7.028;2023-01-26T09:04:35;39.97;;;20.87;;
912;SDS011;443;51.448;7.028;2023-01-26T09:07:01;38.80;;;21.00;;
912;SDS011;443;51.448;7.028;2023-01-26T09:09:30;34.30;;;16.30;;
912;SDS011;443;51.448;7.028;2023-01-26T09:11:56;41.33;;;20.20;;
912;SDS011;443;51.448;7.028;2023-01-26T09:14:25;33.83;;;18.33;;
912;SDS011;443;51.448;7.028;2023-01-26T09:16:52;47.27;;;20.80;;
912;SDS011;443;51.448;7.028;2023-01-26T09:19:19;36.87;;;18.87;;
912;SDS011;443;51.448;7.028;2023-01-26T09:21:46;37.87;;;18.27;;
912;SDS011;443;51.448;7.028;2023-01-26T09:24:16;35.10;;;18.70;;
912;SDS011;443;51.448;7.028;2023-01-26T09:26:43;41.43;;;19.80;;
912;SDS011;443;51.448;7.028;2023-01-26T09:29:10;29.40;;;17.40;;
912;SDS011;443;51.448;7.028;2023-01-26T09:31:38;42.17;;;18.30;;
912;SDS011;443;51.448;7.028;2023-01-26T09:34:05;31.60;;;17.07;;
912;SDS011;443;51.448;7.028;2023-01-26T09:36:32;31.83;;;15.27;;
912;SDS011;443;51.448;7.028;2023-01-26T09:38:59;40.80;;;17.93;;
912;SDS011;443;51.448;7.028;2023-01-26T09:41:33;28.27;;;15.30;;
912;SDS011;443;51.448;7.028;2023-01-26T09:44:12;26.53;;;15.97;;
912;SDS011;443;51.448;7.028;2023-01-26T09:46:55;30.00;;;16.03;;
912;SDS011;443;51.448;7.028;2023-01-26T09:49:35;24.73;;;14.13;;
912;SDS011;443;51.448;7.028;2023-01-26T09:52:11;26.73;;;15.77;;
912;SDS011;443;51.448;7.028;2023-01-26T09:54:47;33.57;;;16.03;;
912;SDS011;443;51.448;7.028;2023-01-26T09:57:16;24.90;;;14.20;;
912;SDS011;443;51.448;7.028;2023-01-26T09:59:47;20.10;;;13.10;;
912;SDS011;443;51.448;7.028;2023-01-26T10:02:32;23.40;;;11.73;;
912;SDS011;443;51.448;7.028;2023-01-26T10:05:13;20.17;;;11.47;;
912;SDS011;443;51.448;7.028;2023-01-26T10:07:43;24.87;;;12.40;;
912;SDS011;443;51.448;7.028;2023-01-26T10:10:13;27.20;;;13.07;;
912;SDS011;443;51.448;7.028;2023-01-26T10:12:45;20.70;;;11.50;;
912;SDS011;443;51.448;7.028;2023-01-26T10:15:17;24.57;;;13.57;;
912;SDS011;443;51.448;7.028;2023-01-26T10:17:52;24.83;;;14.00;;
912;SDS011;443;51.448;7.028;2023-01-26T10:20:23;22.93;;;12.93;;
912;SDS011;443;51.448;7.028;2023-01-26T10:22:54;17.50;;;9.80;;
912;SDS011;443;51.448;7.028;2023-01-26T10:25:26;17.63;;;10.43;;
912;SDS011;443;51.448;7.028;2023-01-26T10:27:58;20.93;;;11.60;;
912;SDS011;443;51.448;7.028;2023-01-26T10:30:27;20.07;;;10.40;;
912;SDS011;443;51.448;7.028;2023-01-26T10:32:55;24.13;;;12.77;;
912;SDS011;443;51.448;7.028;2023-01-26T10:35:22;17.00;;;10.13;;
912;SDS011;443;51.448;7.028;2023-01-26T10:37:50;22.97;;;10.97;;
912;SDS011;443;51.448;7.028;2023-01-26T10:40:17;15.73;;;9.37;;
912;SDS011;443;51.448;7.028;2023-01-26T10:42:52;19.60;;;11.43;;
912;SDS011;443;51.448;7.028;2023-01-26T10:45:25;22.67;;;11.93;;
912;SDS011;443;51.448;7.028;2023-01-26T10:50:48;22.90;;;11.43;;
912;SDS011;443;51.448;7.028;2023-01-26T10:53:16;18.70;;;10.50;;
912;SDS011;443;51.448;7.028;2023-01-26T10:55:56;21.17;;;11.77;;
912;SDS011;443;51.448;7.028;2023-01-26T10:58:35;22.30;;;12.07;;
912;SDS011;443;51.448;7.028;2023-01-26T11:01:09;18.50;;;11.10;;
912;SDS011;443;51.448;7.028;2023-01-26T11:03:41;16.83;;;9.63;;
912;SDS011;443;51.448;7.028;2023-01-26T11:06:29;19.77;;;11.00;;
912;SDS011;443;51.448;7.028;2023-01-26T11:09:07;18.30;;;10.90;;
912;SDS011;443;51.448;7.028;2023-01-26T11:11:35;18.70;;;10.57;;
912;SDS011;443;51.448;7.028;2023-01-26T11:14:09;15.53;;;10.23;;
912;SDS011;443;51.448;7.028;2023-01-26T11:16:37;18.33;;;10.07;;
912;SDS011;443;51.448;7.028;2023-01-26T11:19:10;17.17;;;10.53;;
912;SDS011;443;51.448;7.028;2023-01-26T11:21:40;19.80;;;10.53;;
912;SDS011;443;51.448;7.028;2023-01-26T11:24:12;20.60;;;10.60;;
912;SDS011;443;51.448;7.028;2023-01-26T11:27:03;19.27;;;10.50;;
912;SDS011;443;51.448;7.028;2023-01-26T11:29:43;14.80;;;9.60;;
912;SDS011;443;51.448;7.028;2023-01-26T11:32:21;16.47;;;9.20;;
912;SDS011;443;51.448;7.028;2023-01-26T11:34:59;17.87;;;8.80;;
912;SDS011;443;51.448;7.028;2023-01-26T11:37:42;14.87;;;9.47;;
912;SDS011;443;51.448;7.028;2023-01-26T11:40:14;13.63;;;7.73;;
912;SDS011;443;51.448;7.028;2023-01-26T11:42:50;11.53;;;7.50;;
912;SDS011;443;51.448;7.028;2023-01-26T11:45:33;12.73;;;7.90;;
912;SDS011;443;51.448;7.028;2023-01-26T11:48:20;11.73;;;7.60;;
912;SDS011;443;51.448;7.028;2023-01-26T11:50:59;13.47;;;8.70;;
912;SDS011;443;51.448;7.028;2023-01-26T11:53:38;11.30;;;7.50;;
912;SDS011;443;51.448;7.028;2023-01-26T11:56:21;11.53;;;7.33;;
912;SDS011;443;51.448;7.028;2023-01-26T11:59:01;13.40;;;8.80;;
912;SDS011;443;51.448;7.028;2023-01-26T12:01:34;12.23;;;7.07;;
912;SDS011;443;51.448;7.028;2023-01-26T12:04:05;17.40;;;8.20;;
912;SDS011;443;51.448;7.028;2023-01-26T12:06:41;14.07;;;7.73;;
912;SDS011;443;51.448;7.028;2023-01-26T12:09:12;13.13;;;8.23;;
912;SDS011;443;51.448;7.028;2023-01-26T12:11:44;9.77;;;6.53;;
912;SDS011;443;51.448;7.028;2023-01-26T12:14:21;9.93;;;7.30;;
912;SDS011;443;51.448;7.028;2023-01-26T12:16:58;12.17;;;7.53;;
912;SDS011;443;51.448;7.028;2023-01-26T12:19:38;10.97;;;6.60;;
912;SDS011;443;51.448;7.028;2023-01-26T12:22:12;12.83;;;6.97;;
912;SDS011;443;51.448;7.028;2023-01-26T12:24:46;7.70;;;5.20;;
912;SDS011;443;51.448;7.028;2023-01-26T12:27:21;10.73;;;6.23;;
912;SDS011;443;51.448;7.028;2023-01-26T12:29:53;8.77;;;5.47;;
912;SDS011;443;51.448;7.028;2023-01-26T12:32:27;7.23;;;4.67;;
912;SDS011;443;51.448;7.028;2023-01-26T12:34:54;9.90;;;6.27;;
912;SDS011;443;51.448;7.028;2023-01-26T12:37:37;6.80;;;5.40;;
912;SDS011;443;51.448;7.028;2023-01-26T12:40:14;7.60;;;4.20;;
912;SDS011;443;51.448;7.028;2023-01-26T12:42:53;8.33;;;5.30;;
912;SDS011;443;51.448;7.028;2023-01-26T12:45:31;7.27;;;4.60;;
912;SDS011;443;51.448;7.028;2023-01-26T12:48:03;11.10;;;5.97;;
912;SDS011;443;51.448;7.028;2023-01-26T12:50:36;10.37;;;5.23;;
912;SDS011;443;51.448;7.028;2023-01-26T12:53:08;9.57;;;6.30;;
912;SDS011;443;51.448;7.028;2023-01-26T12:55:41;19.10;;;8.00;;
912;SDS011;443;51.448;7.028;2023-01-26T12:58:13;10.80;;;6.13;;
912;SDS011;443;51.448;7.028;2023-01-26T13:00:50;8.23;;;4.90;;
912;SDS011;443;51.448;7.028;2023-01-26T13:03:19;11.30;;;6.07;;
912;SDS011;443;51.448;7.028;2023-01-26T13:05:53;9.33;;;6.27;;
912;SDS011;443;51.448;7.028;2023-01-26T13:08:39;8.13;;;5.57;;
912;SDS011;443;51.448;7.028;2023-01-26T13:14:24;8.37;;;6.07;;
912;SDS011;443;51.448;7.028;2023-01-26T13:16:56;10.47;;;6.73;;
912;SDS011;443;51.448;7.028;2023-01-26T13:19:33;11.67;;;7.40;;
912;SDS011;443;51.448;7.028;2023-01-26T13:22:01;9.03;;;6.50;;
912;SDS011;443;51.448;7.028;2023-01-26T13:24:41;9.10;;;5.57;;
912;SDS011;443;51.448;7.028;2023-01-26T13:29:56;8.00;;;5.87;;
912;SDS011;443;51.448;7.028;2023-01-26T13:35:27;9.47;;;6.13;;
912;SDS011;443;51.448;7.028;2023-01-26T13:37:58;9.87;;;5.83;;
912;SDS011;443;51.448;7.028;2023-01-26T13:40:32;9.30;;;6.23;;
912;SDS011;443;51.448;7.028;2023-01-26T14:02:28;10.43;;;6.97;;
912;SDS011;443;51.448;7.028;2023-01-26T14:05:19;14.30;;;8.13;;
912;SDS011;443;51.448;7.028;2023-01-26T14:08:02;18.93;;;8.77;;
912;SDS011;443;51.448;7.028;2023-01-26T14:10:52;20.13;;;8.07;;
912;SDS011;443;51.448;7.028;2023-01-26T14:13:34;21.00;;;13.00;;
912;SDS011;443;51.448;7.028;2023-01-26T14:16:03;14.77;;;9.33;;
912;SDS011;443;51.448;7.028;2023-01-26T14:18:31;17.20;;;8.70;;
912;SDS011;443;51.448;7.028;2023-01-26T14:20:59;22.93;;;10.10;;
912;SDS011;443;51.448;7.028;2023-01-26T14:23:30;18.10;;;9.93;;
912;SDS011;443;51.448;7.028;2023-01-26T14:26:00;15.20;;;11.40;;
912;SDS011;443;51.448;7.028;2023-01-26T14:28:30;17.97;;;10.37;;
912;SDS011;443;51.448;7.028;2023-01-26T14:31:01;22.90;;;10.93;;
912;SDS011;443;51.448;7.028;2023-01-26T14:33:30;21.50;;;11.10;;
912;SDS011;443;51.448;7.028;2023-01-26T14:35:58;16.07;;;10.43;;
912;SDS011;443;51.448;7.028;2023-01-26T14:38:27;16.77;;;10.67;;
912;SDS011;443;51.448;7.028;2023-01-26T14:40:57;28.03;;;12.97;;
912;SDS011;443;51.448;7.028;2023-01-26T14:43:25;28.30;;;11.67;;
912;SDS011;443;51.448;7.028;2023-01-26T14:45:54;31.00;;;12.43;;
912;SDS011;443;51.448;7.028;2023-01-26T14:48:25;25.47;;;13.20;;
912;SDS011;443;51.448;7.028;2023-01-26T14:50:54;23.53;;;12.90;;
912;SDS011;443;51.448;7.028;2023-01-26T14:53:22;24.60;;;11.97;;
912;SDS011;443;51.448;7.028;2023-01-26T14:55:51;27.80;;;11.43;;
912;SDS011;443;51.448;7.028;2023-01-26T14:58:19;24.73;;;12.43;;
912;SDS011;443;51.448;7.028;2023-01-26T15:00:48;24.53;;;13.57;;
912;SDS011;443;51.448;7.028;2023-01-26T15:03:21;28.73;;;13.73;;
912;SDS011;443;51.448;7.028;2023-01-26T15:06:02;32.27;;;15.20;;
912;SDS011;443;51.448;7.028;2023-01-26T15:08:31;35.80;;;15.77;;
912;SDS011;443;51.448;7.028;2023-01-26T15:10:59;26.13;;;14.03;;
912;SDS011;443;51.448;7.028;2023-01-26T15:13:40;27.50;;;14.57;;
912;SDS011;443;51.448;7.028;2023-01-26T15:16:13;37.27;;;14.63;;
912;SDS011;443;51.448;7.028;2023-01-26T15:18:43;34.93;;;16.57;;
912;SDS011;443;51.448;7.028;2023-01-26T15:21:12;39.17;;;17.03;;
912;SDS011;443;51.448;7.028;2023-01-26T15:23:41;29.10;;;14.20;;
912;SDS011;443;51.448;7.028;2023-01-26T15:26:11;28.63;;;14.20;;
912;SDS011;443;51.448;7.028;2023-01-26T15:28:39;38.90;;;17.03;;
912;SDS011;443;51.448;7.028;2023-01-26T15:31:07;28.93;;;15.30;;
912;SDS011;443;51.448;7.028;2023-01-26T15:33:46;28.40;;;16.27;;
912;SDS011;443;51.448;7.028;2023-01-26T15:39:12;30.80;;;15.40;;
912;SDS011;443;51.448;7.028;2023-01-26T15:41:40;30.50;;;14.70;;
912;SDS011;443;51.448;7.028;2023-01-26T15:44:10;27.60;;;14.53;;
912;SDS011;443;51.448;7.028;2023-01-26T15:46:40;29.27;;;13.70;;
912;SDS011;443;51.448;7.028;2023-01-26T15:49:09;29.70;;;14.57;;
912;SDS011;443;51.448;7.028;2023-01-26T15:51:36;25.10;;;14.70;;
912;SDS011;443;51.448;7.028;2023-01-26T15:54:03;22.43;;;12.33;;
912;SDS011;443;51.448;7.028;2023-01-26T15:56:30;27.17;;;13.70;;
912;SDS011;443;51.448;7.028;2023-01-26T15:58:57;25.40;;;14.60;;
912;SDS011;443;51.448;7.028;2023-01-26T16:01:24;26.60;;;15.90;;
912;SDS011;443;51.448;7.028;2023-01-26T16:03:56;31.30;;;18.00;;
912;SDS011;443;51.448;7.028;2023-01-26T16:06:24;33.10;;;14.40;;
912;SDS011;443;51.448;7.028;2023-01-26T16:08:53;23.37;;;11.97;;
912;SDS011;443;51.448;7.028;2023-01-26T16:11:21;25.20;;;14.23;;
912;SDS011;443;51.448;7.028;2023-01-26T16:13:51;31.70;;;13.23;;
912;SDS011;443;51.448;7.028;2023-01-26T16:16:20;30.13;;;14.00;;